Time;durP1;ratioP1;P1;durP2;ratioP2;P2;SDS_P1;SDS_P2;PMS_P1;PMS_P2;Temp;Humidity;BMP_temperature;BMP_pressure;BME280_temperature;BME280_humidity;BME280_pressure;Samples;Min_cycle;Max_cycle;Signal;HPM_P1;HPM_P2
2021/07/17 00:00:11;;;;;;;24.90;10.25;;;15.60;99.90;;;;;;4875612;29;20477;-81
2021/07/17 00:02:37;;;;;;;30.63;11.23;;;15.60;99.90;;;;;;4910579;29;20111;-81
2021/07/17 00:05:11;;;;;;;36.10;12.98;;;15.50;99.90;;;;;;4891679;29;20511;-82
2021/07/17 00:07:38;;;;;;;28.52;10.70;;;15.50;99.90;;;;;;4889636;29;20146;-81
2021/07/17 00:10:11;;;;;;;26.88;10.75;;;15.50;99.90;;;;;;4909553;29;20592;-82
2021/07/17 00:12:37;;;;;;;24.55;10.63;;;15.40;99.90;;;;;;4893647;29;20039;-82
2021/07/17 00:15:04;;;;;;;24.20;10.13;;;15.40;99.90;;;;;;4873922;29;20036;-82
2021/07/17 00:17:30;;;;;;;25.48;10.98;;;15.40;99.90;;;;;;4874568;29;20055;-82
2021/07/17 00:19:55;;;;;;;19.52;9.50;;;15.40;99.90;;;;;;4907674;29;20040;-82
2021/07/17 00:22:21;;;;;;;26.77;11.10;;;15.40;99.90;;;;;;4845539;29;20048;-82
2021/07/17 00:24:47;;;;;;;40.08;12.10;;;15.40;99.90;;;;;;4903775;29;20527;-81
2021/07/17 00:27:13;;;;;;;19.70;9.20;;;15.30;99.90;;;;;;4890889;29;20056;-81
2021/07/17 00:29:40;;;;;;;23.65;10.00;;;15.30;99.90;;;;;;4857646;29;20511;-82
2021/07/17 00:32:06;;;;;;;20.42;10.18;;;15.30;99.90;;;;;;4874715;29;20044;-82
2021/07/17 00:34:33;;;;;;;34.00;12.27;;;15.20;99.90;;;;;;4907462;29;20064;-82
2021/07/17 00:36:59;;;;;;;31.10;12.05;;;15.20;99.90;;;;;;4905914;29;20036;-81
2021/07/17 00:39:25;;;;;;;26.63;11.75;;;15.10;99.90;;;;;;4875408;29;20075;-81
2021/07/17 00:41:53;;;;;;;25.80;11.23;;;15.10;99.90;;;;;;4890112;29;20107;-81
2021/07/17 00:44:19;;;;;;;31.83;12.27;;;15.10;99.90;;;;;;4874552;29;20088;-81
2021/07/17 00:46:46;;;;;;;27.65;10.20;;;15.10;99.90;;;;;;4889082;29;20063;-81
2021/07/17 00:49:12;;;;;;;21.35;9.98;;;15.10;99.90;;;;;;4845260;29;20054;-80
2021/07/17 00:51:45;;;;;;;21.90;9.80;;;15.10;99.90;;;;;;4889064;29;20410;-80
2021/07/17 00:54:15;;;;;;;24.00;11.10;;;15.10;99.90;;;;;;4891142;29;20063;-81
2021/07/17 00:56:41;;;;;;;22.05;10.10;;;15.00;99.90;;;;;;4890631;29;20048;-80
2021/07/17 00:59:11;;;;;;;23.73;10.27;;;15.00;99.90;;;;;;4875132;29;20099;-81
2021/07/17 01:01:37;;;;;;;21.48;9.18;;;15.00;99.90;;;;;;4873838;29;20047;-81
2021/07/17 01:04:04;;;;;;;28.58;9.82;;;15.00;99.90;;;;;;4859403;29;20055;-81
2021/07/17 01:06:30;;;;;;;24.70;10.77;;;15.00;99.90;;;;;;4899825;29;20044;-81
2021/07/17 01:08:56;;;;;;;30.00;11.75;;;15.00;99.90;;;;;;4888189;29;20167;-80
2021/07/17 01:11:22;;;;;;;40.75;14.60;;;15.00;99.90;;;;;;4874013;29;20795;-76
2021/07/17 01:13:48;;;;;;;42.75;14.25;;;14.90;99.90;;;;;;4872139;29;20047;-77
2021/07/17 01:16:13;;;;;;;29.65;11.35;;;14.90;99.90;;;;;;4875997;29;20068;-77
2021/07/17 01:18:40;;;;;;;35.58;12.98;;;14.90;99.90;;;;;;4872013;29;20111;-81
2021/07/17 01:21:13;;;;;;;33.28;11.88;;;14.80;99.90;;;;;;4877182;29;20059;-82
2021/07/17 01:23:39;;;;;;;18.58;9.35;;;14.80;99.90;;;;;;4887453;29;20777;-82
2021/07/17 01:26:07;;;;;;;32.65;11.52;;;14.80;99.90;;;;;;4890442;29;20135;-82
2021/07/17 01:28:33;;;;;;;51.30;15.90;;;14.80;99.90;;;;;;4907288;29;20408;-83
2021/07/17 01:30:59;;;;;;;39.30;14.35;;;14.80;99.90;;;;;;4888795;29;20039;-77
2021/07/17 01:33:25;;;;;;;23.15;10.77;;;14.80;99.90;;;;;;4857638;29;20053;-76
2021/07/17 01:35:52;;;;;;;25.95;11.48;;;14.70;99.90;;;;;;4905185;29;20134;-76
2021/07/17 01:38:18;;;;;;;24.40;10.95;;;14.70;99.90;;;;;;4908949;29;20135;-76
2021/07/17 01:40:48;;;;;;;36.65;11.73;;;14.70;99.90;;;;;;4895311;29;20047;-76
2021/07/17 01:43:15;;;;;;;36.33;12.40;;;14.70;99.90;;;;;;4877121;29;20120;-76
2021/07/17 01:45:41;;;;;;;27.55;12.15;;;14.70;99.90;;;;;;4877335;29;20345;-77
2021/07/17 01:48:09;;;;;;;27.80;12.05;;;14.70;99.90;;;;;;4907303;29;20043;-76
2021/07/17 01:50:36;;;;;;;23.25;10.13;;;14.70;99.90;;;;;;4905393;29;20059;-76
2021/07/17 01:53:05;;;;;;;20.38;9.88;;;14.70;99.90;;;;;;4890751;29;20067;-76
2021/07/17 01:55:32;;;;;;;19.02;9.75;;;14.60;99.90;;;;;;4904501;29;20039;-84
2021/07/17 01:58:02;;;;;;;24.05;9.18;;;14.70;99.90;;;;;;4888521;29;20032;-83
2021/07/17 02:00:29;;;;;;;43.03;12.70;;;14.60;99.90;;;;;;4885090;29;20048;-85
2021/07/17 02:02:56;;;;;;;25.50;10.75;;;14.60;99.90;;;;;;4905816;29;20052;-84
2021/07/17 02:05:25;;;;;;;29.52;12.45;;;14.60;99.90;;;;;;4857252;29;20048;-83
2021/07/17 02:07:52;;;;;;;31.30;12.13;;;14.50;99.90;;;;;;4889925;29;20448;-83
2021/07/17 02:10:21;;;;;;;33.25;11.27;;;14.50;99.90;;;;;;4886271;29;20299;-84
2021/07/17 02:13:10;;;;;;;41.17;12.52;;;14.50;99.90;;;;;;4887958;29;20084;-84
2021/07/17 02:15:46;;;;;;;22.83;10.68;;;14.50;99.90;;;;;;4890866;29;20091;-85
2021/07/17 02:18:31;;;;;;;42.08;12.88;;;14.40;99.90;;;;;;4894349;29;20043;-84
2021/07/17 02:21:05;;;;;;;38.55;11.85;;;14.50;99.90;;;;;;4893265;29;20044;-85
2021/07/17 02:23:31;;;;;;;35.50;15.57;;;14.50;99.90;;;;;;4874143;29;20052;-83
2021/07/17 02:25:58;;;;;;;25.55;10.50;;;14.40;99.90;;;;;;4893316;29;20065;-85
2021/07/17 02:28:25;;;;;;;24.40;10.50;;;14.40;99.90;;;;;;4861112;29;20131;-85
2021/07/17 02:30:51;;;;;;;40.45;12.63;;;14.40;99.90;;;;;;4875418;29;20038;-84
2021/07/17 02:33:18;;;;;;;23.65;11.52;;;14.40;99.90;;;;;;4875628;29;20732;-84
2021/07/17 02:35:44;;;;;;;45.85;13.35;;;14.40;99.90;;;;;;4888273;29;20044;-78
2021/07/17 02:38:15;;;;;;;49.60;15.05;;;14.40;99.90;;;;;;4888476;29;20048;-79
2021/07/17 02:40:40;;;;;;;39.53;14.52;;;14.40;99.90;;;;;;4906107;29;20048;-80
2021/07/17 02:43:06;;;;;;;35.30;12.55;;;14.40;99.90;;;;;;4873785;29;20040;-80
2021/07/17 02:45:33;;;;;;;26.42;10.93;;;14.40;99.90;;;;;;4861401;29;20048;-80
2021/07/17 02:47:59;;;;;;;24.92;10.38;;;14.40;99.90;;;;;;4887958;29;20295;-79
2021/07/17 02:50:26;;;;;;;31.10;11.40;;;14.40;99.90;;;;;;4860073;29;20150;-79
2021/07/17 02:52:52;;;;;;;19.95;9.18;;;14.40;99.90;;;;;;4875259;29;20059;-79
2021/07/17 02:55:18;;;;;;;41.97;13.77;;;14.40;99.90;;;;;;4856104;29;20415;-79
2021/07/17 02:57:44;;;;;;;40.75;14.23;;;14.50;99.90;;;;;;4857589;29;20052;-79
2021/07/17 03:00:13;;;;;;;44.63;14.50;;;14.50;99.90;;;;;;4882657;29;20055;-80
2021/07/17 03:02:39;;;;;;;41.80;15.90;;;14.50;99.90;;;;;;4900591;29;20055;-78
2021/07/17 03:05:06;;;;;;;46.72;15.52;;;14.50;99.90;;;;;;4887056;29;20037;-78
2021/07/17 03:07:33;;;;;;;51.45;16.55;;;14.50;99.90;;;;;;4871470;29;20048;-79
2021/07/17 03:10:00;;;;;;;37.42;13.55;;;14.60;99.90;;;;;;4903375;29;20533;-78
2021/07/17 03:12:26;;;;;;;30.60;12.88;;;14.60;99.90;;;;;;4905472;29;20075;-78
2021/07/17 03:14:52;;;;;;;53.85;15.98;;;14.60;99.90;;;;;;4900810;29;20040;-79
2021/07/17 03:17:18;;;;;;;56.13;15.73;;;14.60;99.90;;;;;;4883921;29;20115;-78
2021/07/17 03:19:44;;;;;;;40.55;14.43;;;14.70;99.90;;;;;;4869686;29;20048;-78
2021/07/17 03:22:12;;;;;;;38.92;12.02;;;14.70;99.90;;;;;;4869316;29;20055;-79
2021/07/17 03:24:38;;;;;;;39.78;13.63;;;14.70;99.90;;;;;;4885499;29;20040;-79
2021/07/17 03:27:04;;;;;;;23.98;10.65;;;14.70;99.90;;;;;;4886813;29;20048;-81
2021/07/17 03:29:31;;;;;;;23.63;8.85;;;14.70;99.90;;;;;;4890812;29;20043;-79
2021/07/17 03:31:56;;;;;;;35.67;12.68;;;14.60;99.90;;;;;;4869070;29;20562;-79
2021/07/17 03:34:23;;;;;;;42.45;14.60;;;14.60;99.90;;;;;;4892513;29;20132;-79
2021/07/17 03:36:49;;;;;;;49.08;14.55;;;14.70;99.90;;;;;;4907435;29;20048;-79
2021/07/17 03:39:15;;;;;;;40.88;14.52;;;14.70;99.90;;;;;;4874001;29;20054;-78
2021/07/17 03:41:43;;;;;;;48.70;15.07;;;14.80;99.90;;;;;;4874393;29;20040;-79
2021/07/17 03:44:10;;;;;;;38.65;11.88;;;14.80;99.90;;;;;;4871228;29;20582;-79
2021/07/17 03:46:36;;;;;;;39.22;12.93;;;14.80;99.90;;;;;;4878517;29;20050;-79
2021/07/17 03:49:03;;;;;;;31.33;11.82;;;14.80;99.90;;;;;;4876883;29;20495;-79
2021/07/17 03:51:29;;;;;;;35.08;12.40;;;14.80;99.90;;;;;;4904791;29;20040;-79
2021/07/17 03:53:58;;;;;;;52.67;13.68;;;14.80;99.90;;;;;;4903327;29;20052;-80
2021/07/17 03:56:24;;;;;;;36.28;11.77;;;14.90;99.90;;;;;;4885575;29;20103;-79
2021/07/17 03:58:50;;;;;;;48.67;13.68;;;14.90;99.90;;;;;;4875296;29;20044;-79
2021/07/17 04:01:17;;;;;;;51.58;13.80;;;14.90;99.90;;;;;;4867550;29;20044;-79
2021/07/17 04:03:46;;;;;;;47.70;13.75;;;14.90;99.90;;;;;;4873190;29;20056;-79
2021/07/17 04:06:12;;;;;;;46.55;13.95;;;14.90;99.90;;;;;;4874475;29;20264;-82
2021/07/17 04:08:38;;;;;;;43.70;13.05;;;15.00;99.90;;;;;;4874886;29;20043;-81
2021/07/17 04:11:04;;;;;;;49.22;15.15;;;15.10;99.90;;;;;;4875261;29;20131;-83
2021/07/17 04:13:30;;;;;;;44.28;13.93;;;15.10;99.90;;;;;;4875740;29;20047;-82
2021/07/17 04:15:56;;;;;;;45.92;13.23;;;15.10;99.90;;;;;;4857008;29;20115;-82
2021/07/17 04:18:22;;;;;;;54.88;13.43;;;15.10;99.90;;;;;;4877731;29;20132;-83
2021/07/17 04:20:48;;;;;;;46.90;12.90;;;15.10;99.90;;;;;;4890328;29;20052;-82
2021/07/17 04:23:14;;;;;;;40.53;12.93;;;15.20;99.90;;;;;;4876457;29;20044;-82
2021/07/17 04:25:40;;;;;;;43.88;14.02;;;15.20;99.90;;;;;;4895427;29;20056;-81
2021/07/17 04:28:06;;;;;;;44.47;13.40;;;15.30;99.90;;;;;;4874881;29;20071;-82
2021/07/17 04:30:33;;;;;;;45.00;13.18;;;15.30;99.90;;;;;;4876198;29;20036;-82
2021/07/17 04:32:58;;;;;;;41.67;12.25;;;15.30;99.90;;;;;;4873447;29;20032;-81
2021/07/17 04:35:25;;;;;;;42.72;12.40;;;15.40;99.90;;;;;;4872097;29;20052;-82
2021/07/17 04:37:51;;;;;;;43.60;13.23;;;15.40;99.90;;;;;;4876717;29;20953;-83
2021/07/17 04:40:17;;;;;;;41.78;12.77;;;15.40;99.90;;;;;;4890087;29;20040;-80
2021/07/17 04:42:43;;;;;;;38.63;13.02;;;15.50;99.90;;;;;;4877848;29;20115;-82
2021/07/17 04:45:12;;;;;;;39.92;12.30;;;15.60;99.90;;;;;;4889918;29;20044;-79
2021/07/17 04:47:38;;;;;;;52.67;13.65;;;15.60;99.90;;;;;;4890669;29;20047;-82
2021/07/17 04:50:05;;;;;;;39.80;13.45;;;15.70;99.90;;;;;;4874840;29;20044;-80
2021/07/17 04:52:31;;;;;;;53.15;13.40;;;15.70;99.90;;;;;;4884983;29;20405;-81
2021/07/17 04:54:57;;;;;;;33.28;11.63;;;15.80;99.90;;;;;;4860971;29;20082;-79
2021/07/17 04:57:23;;;;;;;37.45;13.63;;;15.80;99.90;;;;;;4901733;29;20043;-82
2021/07/17 04:59:49;;;;;;;37.88;12.13;;;15.90;99.90;;;;;;4876727;29;20164;-79
2021/07/17 05:02:15;;;;;;;39.88;12.02;;;16.00;99.90;;;;;;4908983;29;20075;-77
2021/07/17 05:04:40;;;;;;;38.85;12.13;;;16.00;99.90;;;;;;4872604;29;20052;-77
2021/07/17 05:07:06;;;;;;;32.72;11.20;;;16.10;99.90;;;;;;4905448;29;20044;-78
2021/07/17 05:09:32;;;;;;;31.17;10.80;;;16.10;99.90;;;;;;4855292;29;20059;-79
2021/07/17 05:11:58;;;;;;;39.20;10.98;;;16.20;99.90;;;;;;4858020;29;20360;-78
2021/07/17 05:14:24;;;;;;;33.88;11.15;;;16.30;99.90;;;;;;4883905;29;20039;-78
2021/07/17 05:16:50;;;;;;;30.17;11.00;;;16.40;99.90;;;;;;4885853;29;20044;-78
2021/07/17 05:19:18;;;;;;;34.78;11.00;;;16.60;99.90;;;;;;4859437;29;20060;-79
2021/07/17 05:21:44;;;;;;;28.50;11.05;;;16.60;99.90;;;;;;4903569;29;20032;-76
2021/07/17 05:24:10;;;;;;;33.60;11.27;;;16.70;99.90;;;;;;4870231;29;20059;-78
2021/07/17 05:26:36;;;;;;;28.05;10.45;;;16.80;99.90;;;;;;4883431;29;20058;-77
2021/07/17 05:29:02;;;;;;;28.27;10.63;;;16.80;99.90;;;;;;4887501;29;20567;-78
2021/07/17 05:31:28;;;;;;;28.15;9.63;;;16.90;99.90;;;;;;4868226;29;20094;-80
2021/07/17 05:33:57;;;;;;;31.02;9.93;;;16.90;99.90;;;;;;4876174;29;20048;-78
2021/07/17 05:36:23;;;;;;;34.17;8.75;;;16.90;99.90;;;;;;4856743;29;20154;-77
2021/07/17 05:38:49;;;;;;;31.00;10.02;;;17.00;99.90;;;;;;4884719;29;20135;-82
2021/07/17 05:41:15;;;;;;;25.85;8.50;;;17.10;99.90;;;;;;4908757;29;20115;-83
2021/07/17 05:43:41;;;;;;;27.88;8.57;;;17.10;99.90;;;;;;4855969;29;20079;-81
2021/07/17 05:46:07;;;;;;;25.25;8.70;;;17.10;99.90;;;;;;4875620;29;20651;-80
2021/07/17 05:48:33;;;;;;;27.10;8.48;;;17.20;99.90;;;;;;4873117;29;20076;-80
2021/07/17 05:50:59;;;;;;;21.30;8.57;;;17.20;99.90;;;;;;4891400;29;20040;-82
2021/07/17 05:53:25;;;;;;;23.10;7.72;;;17.30;99.90;;;;;;4859594;29;20044;-78
2021/07/17 05:55:50;;;;;;;22.02;7.82;;;17.30;99.90;;;;;;4884327;29;20665;-80
2021/07/17 05:58:16;;;;;;;25.13;8.00;;;17.40;99.90;;;;;;4889141;29;20044;-79
2021/07/17 06:00:44;;;;;;;20.63;6.97;;;17.50;99.90;;;;;;4888012;29;20067;-77
2021/07/17 06:03:10;;;;;;;20.50;7.88;;;17.50;99.90;;;;;;4890815;29;21247;-81
2021/07/17 06:05:36;;;;;;;22.75;7.28;;;17.60;99.90;;;;;;4884316;29;20131;-81
2021/07/17 06:08:03;;;;;;;20.75;6.57;;;17.70;99.90;;;;;;4909253;29;20503;-76
2021/07/17 06:10:28;;;;;;;18.15;7.95;;;17.80;99.90;;;;;;4855187;29;20051;-79
2021/07/17 06:12:54;;;;;;;19.50;6.75;;;18.00;99.90;;;;;;4875637;29;20032;-80
2021/07/17 06:15:20;;;;;;;18.63;6.85;;;18.00;99.90;;;;;;4875915;29;20044;-79
2021/07/17 06:17:50;;;;;;;17.92;6.20;;;18.00;99.90;;;;;;4875015;29;20032;-81
2021/07/17 06:20:16;;;;;;;19.35;5.68;;;18.00;99.90;;;;;;4887571;29;20046;-79
2021/07/17 06:22:41;;;;;;;19.35;6.45;;;18.10;99.90;;;;;;4873758;29;20032;-81
2021/07/17 06:25:08;;;;;;;18.70;5.97;;;18.10;99.90;;;;;;4875586;29;20044;-81
2021/07/17 06:27:34;;;;;;;19.40;6.63;;;18.20;99.90;;;;;;4875949;29;20056;-75
2021/07/17 06:30:00;;;;;;;18.30;5.65;;;18.30;99.90;;;;;;4852388;29;20519;-81
2021/07/17 06:32:26;;;;;;;14.38;5.78;;;18.40;99.90;;;;;;4886330;29;20139;-78
2021/07/17 06:34:51;;;;;;;14.73;5.15;;;18.40;99.90;;;;;;4883230;29;20060;-81
2021/07/17 06:37:17;;;;;;;15.82;5.60;;;18.50;99.90;;;;;;4883510;29;20551;-78
2021/07/17 06:39:43;;;;;;;17.55;5.28;;;18.50;99.90;;;;;;4883932;29;20040;-80
2021/07/17 06:42:10;;;;;;;12.13;4.30;;;18.60;99.90;;;;;;4902744;29;20196;-81
2021/07/17 06:44:35;;;;;;;16.35;5.43;;;18.70;99.90;;;;;;4871688;29;20115;-84
2021/07/17 06:47:01;;;;;;;14.00;4.97;;;18.80;99.90;;;;;;4868272;29;20044;-80
2021/07/17 06:49:27;;;;;;;15.50;4.25;;;18.80;99.90;;;;;;4886383;29;20048;-78
2021/07/17 06:51:53;;;;;;;16.38;4.18;;;18.90;99.90;;;;;;4837533;29;20041;-79
2021/07/17 06:54:19;;;;;;;12.02;4.53;;;19.00;99.90;;;;;;4883919;29;20044;-80
2021/07/17 06:56:45;;;;;;;10.88;3.47;;;19.20;99.90;;;;;;4904735;29;20197;-81
2021/07/17 06:59:11;;;;;;;11.82;3.88;;;19.20;99.90;;;;;;4872819;29;20048;-80
2021/07/17 07:01:36;;;;;;;14.00;3.70;;;19.30;99.90;;;;;;4902621;29;20051;-80
2021/07/17 07:04:02;;;;;;;13.05;3.85;;;19.30;99.90;;;;;;4872228;29;20475;-79
2021/07/17 07:06:28;;;;;;;11.27;3.42;;;19.40;98.90;;;;;;4871974;29;20848;-81
2021/07/17 07:08:54;;;;;;;12.50;3.63;;;19.50;98.90;;;;;;4906390;29;20391;-80
2021/07/17 07:11:20;;;;;;;11.23;3.63;;;19.50;99.60;;;;;;4842320;29;20111;-80
2021/07/17 07:13:46;;;;;;;13.40;4.28;;;19.60;99.20;;;;;;4870090;29;20040;-75
2021/07/17 07:16:15;;;;;;;12.57;3.30;;;19.80;98.90;;;;;;4865848;29;20458;-75
2021/07/17 07:18:40;;;;;;;11.32;3.03;;;19.90;97.70;;;;;;4885779;29;20100;-79
2021/07/17 07:21:07;;;;;;;11.77;3.15;;;19.90;98.00;;;;;;4874669;29;20040;-76
2021/07/17 07:23:36;;;;;;;12.20;3.42;;;20.00;98.00;;;;;;4881580;29;20542;-77
2021/07/17 07:26:03;;;;;;;10.50;3.13;;;20.10;97.80;;;;;;4886173;29;20362;-77
2021/07/17 07:28:29;;;;;;;12.18;3.42;;;20.00;96.70;;;;;;4887099;29;20299;-78
2021/07/17 07:30:55;;;;;;;10.90;2.60;;;20.10;96.60;;;;;;4890639;29;20488;-82
2021/07/17 07:33:20;;;;;;;12.95;3.33;;;20.20;96.40;;;;;;4872948;29;20110;-80
2021/07/17 07:35:46;;;;;;;9.68;2.90;;;20.30;96.20;;;;;;4886605;29;20756;-76
2021/07/17 07:38:12;;;;;;;10.52;3.33;;;20.40;96.20;;;;;;4856470;29;20036;-76
2021/07/17 07:40:41;;;;;;;12.23;3.13;;;20.50;95.60;;;;;;4856517;29;20048;-76
2021/07/17 07:43:07;;;;;;;10.30;2.85;;;20.60;94.20;;;;;;4905285;29;20052;-75
2021/07/17 07:45:33;;;;;;;9.75;2.83;;;20.60;95.10;;;;;;4879090;29;20551;-78
2021/07/17 07:47:59;;;;;;;7.18;2.90;;;20.70;95.20;;;;;;4901844;29;20162;-78
2021/07/17 07:50:25;;;;;;;8.75;3.10;;;20.80;95.30;;;;;;4864115;29;20746;-75
2021/07/17 07:52:51;;;;;;;7.70;2.60;;;20.90;94.30;;;;;;4903029;29;20535;-78
2021/07/17 07:55:17;;;;;;;7.68;2.53;;;21.00;94.10;;;;;;4903249;29;20043;-78
2021/07/17 07:57:43;;;;;;;9.35;3.00;;;21.10;94.30;;;;;;4888913;29;20467;-77
2021/07/17 08:00:15;;;;;;;14.80;3.13;;;21.20;94.40;;;;;;4870633;29;20040;-77
2021/07/17 08:02:41;;;;;;;8.55;2.60;;;21.30;94.60;;;;;;4904124;29;20052;-78
2021/07/17 08:05:08;;;;;;;9.65;2.75;;;21.40;93.90;;;;;;4874727;29;20044;-78
2021/07/17 08:07:37;;;;;;;11.25;3.10;;;21.50;94.40;;;;;;4867156;29;20040;-78
2021/07/17 08:10:04;;;;;;;8.30;3.17;;;21.60;94.20;;;;;;4899179;29;20048;-78
2021/07/17 08:12:30;;;;;;;12.48;2.85;;;21.70;93.40;;;;;;4904129;29;20040;-78
2021/07/17 08:14:56;;;;;;;10.85;2.70;;;21.80;92.40;;;;;;4871135;29;20092;-79
2021/07/17 08:17:22;;;;;;;8.73;2.30;;;21.90;91.30;;;;;;4873331;29;20510;-79
2021/07/17 08:19:48;;;;;;;9.55;3.05;;;21.80;92.30;;;;;;4901526;29;20483;-80
2021/07/17 08:22:13;;;;;;;10.32;2.30;;;21.90;93.20;;;;;;4858721;29;20048;-77
2021/07/17 08:24:39;;;;;;;8.57;2.78;;;22.00;92.80;;;;;;4856329;29;20048;-81
2021/07/17 08:27:06;;;;;;;9.32;2.85;;;22.00;91.40;;;;;;4904548;29;20072;-79
2021/07/17 08:29:32;;;;;;;8.27;2.90;;;22.00;92.40;;;;;;4854963;29;20244;-77
2021/07/17 08:31:58;;;;;;;7.80;3.10;;;22.10;92.20;;;;;;4854243;29;20062;-77
2021/07/17 08:34:24;;;;;;;7.22;2.72;;;22.20;93.10;;;;;;4883991;29;20525;-77
2021/07/17 08:36:50;;;;;;;8.82;2.97;;;22.30;90.90;;;;;;4873833;29;20058;-78
2021/07/17 08:39:15;;;;;;;9.85;2.45;;;22.40;91.40;;;;;;4870809;29;20471;-77
2021/07/17 08:41:48;;;;;;;8.55;2.80;;;22.40;90.40;;;;;;4867342;29;20099;-78
2021/07/17 08:44:17;;;;;;;15.32;3.95;;;22.40;91.40;;;;;;4909335;29;20487;-77
2021/07/17 08:46:46;;;;;;;8.25;2.42;;;22.40;91.90;;;;;;4898438;29;20530;-79
2021/07/17 08:49:12;;;;;;;10.02;2.70;;;22.50;90.70;;;;;;4891097;29;20052;-80
2021/07/17 08:51:39;;;;;;;9.80;2.45;;;22.60;90.70;;;;;;4884085;29;20575;-79
2021/07/17 08:54:05;;;;;;;6.90;2.15;;;22.70;90.80;;;;;;4868632;29;20436;-83
2021/07/17 08:56:31;;;;;;;6.78;2.13;;;22.80;90.10;;;;;;4885880;29;20110;-78
2021/07/17 08:58:57;;;;;;;6.78;3.00;;;22.80;87.40;;;;;;4870422;29;20092;-78
2021/07/17 09:01:24;;;;;;;7.28;2.13;;;22.70;90.00;;;;;;4881292;29;20499;-78
2021/07/17 09:03:53;;;;;;;7.05;2.80;;;22.80;88.30;;;;;;4886622;29;20044;-73
2021/07/17 09:06:19;;;;;;;5.78;2.83;;;22.80;88.20;;;;;;4903509;29;20044;-81
2021/07/17 09:08:45;;;;;;;7.65;2.42;;;22.80;88.00;;;;;;4886410;29;20137;-79
2021/07/17 09:11:11;;;;;;;8.23;2.20;;;22.90;87.60;;;;;;4872560;29;20059;-78
2021/07/17 09:13:37;;;;;;;7.35;2.10;;;22.90;88.20;;;;;;4905016;29;20040;-78
2021/07/17 09:16:05;;;;;;;6.82;1.90;;;23.00;87.10;;;;;;4884263;29;20044;-78
2021/07/17 09:18:47;;;;;;;7.97;2.00;;;23.00;83.70;;;;;;4904938;29;20541;-81
2021/07/17 09:21:21;;;;;;;8.40;2.38;;;23.00;85.50;;;;;;4883061;29;20036;-82
2021/07/17 09:23:49;;;;;;;6.28;2.22;;;23.00;88.30;;;;;;4898241;29;20451;-78
2021/07/17 09:26:25;;;;;;;5.75;2.05;;;23.00;84.70;;;;;;4886962;29;20048;-80
2021/07/17 09:29:05;;;;;;;8.00;2.70;;;23.00;87.20;;;;;;4907041;29;20514;-83
2021/07/17 09:31:48;;;;;;;8.73;2.17;;;23.20;86.40;;;;;;4869675;29;20048;-79
2021/07/17 09:34:14;;;;;;;5.30;2.10;;;23.30;87.20;;;;;;4888569;29;20052;-80
2021/07/17 09:36:59;;;;;;;6.82;1.98;;;23.40;85.50;;;;;;4886045;29;20080;-78
2021/07/17 09:39:40;;;;;;;8.88;2.13;;;23.50;80.80;;;;;;4895578;29;20463;-79
2021/07/17 09:42:14;;;;;;;4.93;1.50;;;23.50;81.40;;;;;;4885264;29;20052;-78
2021/07/17 09:44:45;;;;;;;6.65;1.65;;;23.60;82.70;;;;;;4887621;29;20465;-81
2021/07/17 09:47:15;;;;;;;7.13;1.98;;;23.70;82.80;;;;;;4885418;29;20043;-86
2021/07/17 09:49:41;;;;;;;5.47;1.90;;;23.80;81.60;;;;;;4887291;29;20032;-76
2021/07/17 09:52:17;;;;;;;5.15;1.45;;;23.80;80.80;;;;;;4886006;29;20417;-80
2021/07/17 09:55:04;;;;;;;6.22;2.03;;;23.80;79.20;;;;;;4871639;29;20314;-80
2021/07/17 09:57:31;;;;;;;5.70;1.67;;;23.80;79.60;;;;;;4883988;29;20079;-81
2021/07/17 10:00:05;;;;;;;6.63;1.48;;;23.90;78.00;;;;;;4871610;29;20040;-77
2021/07/17 10:02:31;;;;;;;6.22;1.73;;;23.90;77.50;;;;;;4896189;29;20047;-80
2021/07/17 10:04:57;;;;;;;5.70;1.60;;;23.90;78.40;;;;;;4868787;29;20048;-78
2021/07/17 10:07:23;;;;;;;6.43;1.70;;;23.90;81.20;;;;;;4886145;29;20451;-81
2021/07/17 10:09:52;;;;;;;5.22;2.13;;;24.10;78.30;;;;;;4870381;29;20043;-81
2021/07/17 10:12:37;;;;;;;6.65;1.50;;;24.10;79.10;;;;;;4876950;29;20463;-78
2021/07/17 10:15:06;;;;;;;4.88;1.50;;;24.10;78.40;;;;;;4893104;29;20044;-79
2021/07/17 10:17:42;;;;;;;4.03;1.67;;;24.20;80.20;;;;;;4885832;29;20040;-84
2021/07/17 10:20:13;;;;;;;5.93;2.05;;;24.40;79.60;;;;;;4883172;29;20100;-79
2021/07/17 10:22:40;;;;;;;4.65;1.50;;;24.40;74.70;;;;;;4881853;29;20055;-81
2021/07/17 10:25:11;;;;;;;4.95;1.50;;;24.40;78.60;;;;;;4874142;29;20062;-78
2021/07/17 10:27:38;;;;;;;4.38;1.27;;;24.40;74.00;;;;;;4885704;29;20542;-80
2021/07/17 10:30:07;;;;;;;4.38;1.92;;;24.50;70.20;;;;;;4904796;29;20036;-79
2021/07/17 10:32:33;;;;;;;6.35;2.05;;;24.40;76.00;;;;;;4857786;29;20040;-80
2021/07/17 10:35:00;;;;;;;5.82;1.95;;;24.50;78.60;;;;;;4877379;29;20056;-81
2021/07/17 10:37:31;;;;;;;6.28;1.65;;;24.60;79.20;;;;;;4890865;29;20052;-78
2021/07/17 10:40:05;;;;;;;6.40;1.77;;;24.60;75.80;;;;;;4890581;29;20510;-79
2021/07/17 10:42:31;;;;;;;7.70;1.92;;;24.40;76.40;;;;;;4908801;29;20762;-81
2021/07/17 10:45:00;;;;;;;6.68;2.20;;;24.40;78.10;;;;;;4909983;29;20044;-82
2021/07/17 10:47:37;;;;;;;5.63;1.80;;;24.40;77.20;;;;;;4861276;29;20661;-80
2021/07/17 10:50:03;;;;;;;4.53;1.65;;;24.40;73.80;;;;;;4876379;29;20128;-81
2021/07/17 10:52:43;;;;;;;4.25;1.52;;;24.40;75.50;;;;;;4872618;29;20410;-78
2021/07/17 10:55:28;;;;;;;;;;;24.40;73.80;;;;;;4890751;29;20526;-80
2021/07/17 10:58:00;;;;;;;4.15;1.35;;;24.40;70.10;;;;;;4891521;29;20348;-80
2021/07/17 11:00:41;;;;;;;5.78;1.67;;;24.30;71.80;;;;;;4891870;29;20040;-79
2021/07/17 11:03:21;;;;;;;5.60;1.50;;;24.40;71.60;;;;;;4902422;29;20136;-79
2021/07/17 11:05:49;;;;;;;4.82;1.23;;;24.40;73.90;;;;;;4888674;29;20075;-78
2021/07/17 11:08:37;;;;;;;5.45;1.60;;;24.50;75.00;;;;;;4890576;29;20047;-79
2021/07/17 11:11:31;;;;;;;4.90;1.42;;;24.70;75.70;;;;;;4875929;29;20051;-78
2021/07/17 11:14:12;;;;;;;4.53;1.73;;;24.70;68.30;;;;;;4886063;29;20051;-79
2021/07/17 11:16:43;;;;;;;4.60;1.45;;;24.70;67.10;;;;;;4904338;29;20510;-80
2021/07/17 11:19:28;;;;;;;4.72;1.40;;;24.70;66.80;;;;;;4890232;29;20052;-86
2021/07/17 11:22:13;;;;;;;2.42;0.82;;;24.80;70.70;;;;;;4906247;29;20135;-85
2021/07/17 11:24:40;;;;;;;3.08;1.00;;;24.90;63.80;;;;;;4905400;29;20040;-84
2021/07/17 11:27:15;;;;;;;6.68;1.45;;;24.80;63.80;;;;;;4888728;29;20048;-82
2021/07/17 11:29:44;;;;;;;3.67;1.40;;;24.80;66.20;;;;;;4904387;29;20096;-79
2021/07/17 11:32:12;;;;;;;2.80;0.90;;;24.80;64.50;;;;;;4892028;29;20419;-82
2021/07/17 11:34:50;;;;;;;5.43;1.40;;;24.90;63.90;;;;;;4877933;29;20376;-78
2021/07/17 11:37:19;;;;;;;3.35;0.90;;;24.90;65.20;;;;;;4888327;29;20044;-78
2021/07/17 11:39:48;;;;;;;3.80;1.10;;;24.90;65.70;;;;;;4908740;29;20484;-80
2021/07/17 11:42:16;;;;;;;3.97;1.20;;;25.10;63.80;;;;;;4908205;29;20063;-74
2021/07/17 11:45:00;;;;;;;3.42;1.20;;;25.20;60.00;;;;;;4887183;29;20571;-79
2021/07/17 11:47:30;;;;;;;3.95;1.25;;;25.20;63.50;;;;;;4872375;29;20133;-80
2021/07/17 11:49:57;;;;;;;3.38;1.15;;;25.20;61.90;;;;;;4891245;29;20047;-80
2021/07/17 11:52:29;;;;;;;4.53;1.10;;;25.30;64.30;;;;;;4873837;29;20055;-79
2021/07/17 11:55:12;;;;;;;2.60;1.10;;;25.40;67.40;;;;;;4902287;29;20071;-79
2021/07/17 11:57:40;;;;;;;4.15;1.27;;;25.40;64.50;;;;;;4886673;29;20069;-80
2021/07/17 12:00:15;;;;;;;4.50;1.42;;;25.30;65.20;;;;;;4892318;29;20087;-81
2021/07/17 12:02:42;;;;;;;3.45;1.30;;;25.40;67.80;;;;;;4910657;29;20056;-79
2021/07/17 12:05:10;;;;;;;3.30;1.10;;;25.50;67.90;;;;;;4897666;29;20052;-79
2021/07/17 12:07:38;;;;;;;4.75;1.33;;;25.50;62.40;;;;;;4892358;29;20120;-77
2021/07/17 12:10:31;;;;;;;3.97;1.23;;;25.40;63.70;;;;;;4910791;29;20048;-80
2021/07/17 12:13:03;;;;;;;5.00;1.30;;;25.30;66.70;;;;;;4887764;29;20460;-79
2021/07/17 12:15:33;;;;;;;5.30;1.27;;;25.30;64.80;;;;;;4885865;29;20623;-81
2021/07/17 12:18:02;;;;;;;3.75;1.17;;;25.40;66.30;;;;;;4898090;29;20374;-81
2021/07/17 12:21:00;;;;;;;5.57;1.42;;;25.40;65.30;;;;;;4873537;29;20309;-80
2021/07/17 12:23:26;;;;;;;4.60;1.33;;;25.40;66.80;;;;;;4873605;29;20063;-79
2021/07/17 12:25:54;;;;;;;5.30;1.20;;;25.40;69.00;;;;;;4888195;29;20281;-81
2021/07/17 12:28:23;;;;;;;2.70;1.27;;;25.60;62.60;;;;;;4885843;29;20394;-79
2021/07/17 12:30:51;;;;;;;5.95;1.30;;;25.50;62.50;;;;;;4895328;29;20055;-80
2021/07/17 12:33:30;;;;;;;1.77;0.95;;;25.50;64.00;;;;;;4889515;29;20043;-81
2021/07/17 12:36:01;;;;;;;2.92;1.60;;;25.50;67.90;;;;;;4892862;29;20071;-81
2021/07/17 12:38:29;;;;;;;3.38;1.00;;;25.50;68.60;;;;;;4901493;29;20044;-84
2021/07/17 12:41:03;;;;;;;5.70;1.15;;;25.60;65.60;;;;;;4874778;29;20135;-79